Terminal Aerodrome Forecast
Issued by NWS Key West, FL

Home | Current Version | Previous Version | Text Only | Print | Product List | Glossary On
Versions: 1 2 3 4 5 6 7 8 9 10 11 12 13 14 15 16 17 18
000
FTUS42 KKEY 261131
TAFEYW
TAF
KEYW 261131Z 2612/2712 VRB03KT P6SM SCT020 BKN080 OVC250
     FM261800 16007KT P6SM VCTS SCT020CB BKN080 OVC250
     FM270300 14008KT P6SM FEW020 BKN080 OVC250=

USA.gov is the U.S. government's official web portal to all federal, state and local government web resources and services.